Time;durP1;ratioP1;P1;durP2;ratioP2;P2;SDS_P1;SDS_P2;PMS_P1;PMS_P2;Temp;Humidity;BMP_temperature;BMP_pressure;BME280_temperature;BME280_humidity;BME280_pressure;Samples;Min_cycle;Max_cycle;Signal;HPM_P1;HPM_P2
2023/05/21 00:00:29;;;;;;;4.77;2.90;;;;;;;12.98;100.00;102183.38;5020329;28;20655;-78
2023/05/21 00:02:56;;;;;;;4.00;2.70;;;;;;;12.93;100.00;102183.19;5032859;28;20190;-77
2023/05/21 00:05:22;;;;;;;6.00;3.43;;;;;;;12.94;100.00;102178.09;5028697;28;20232;-77
2023/05/21 00:07:48;;;;;;;4.50;2.97;;;;;;;12.93;100.00;102176.34;5008561;28;20199;-78
2023/05/21 00:10:13;;;;;;;4.47;2.77;;;;;;;12.88;100.00;102177.91;5034408;28;20194;-76
2023/05/21 00:12:40;;;;;;;5.80;3.20;;;;;;;12.86;100.00;102173.53;5034104;28;20193;-79
2023/05/21 00:15:06;;;;;;;5.93;2.83;;;;;;;12.82;100.00;102185.41;5014967;28;20193;-77
2023/05/21 00:17:33;;;;;;;5.67;3.00;;;;;;;12.84;100.00;102177.75;5032247;28;20206;-76
2023/05/21 00:19:58;;;;;;;8.37;2.73;;;;;;;12.85;100.00;102175.22;5015732;28;20194;-77
2023/05/21 00:22:24;;;;;;;6.93;3.20;;;;;;;12.79;100.00;102177.63;5013985;28;20571;-77
2023/05/21 00:24:49;;;;;;;6.40;3.13;;;;;;;12.72;100.00;102174.81;5031790;28;20247;-77
2023/05/21 00:27:15;;;;;;;5.33;2.80;;;;;;;12.73;100.00;102168.84;5034824;28;20198;-78
2023/05/21 00:29:41;;;;;;;9.20;3.53;;;;;;;12.65;100.00;102172.84;5016997;28;20213;-78
2023/05/21 00:32:06;;;;;;;5.00;2.50;;;;;;;12.72;100.00;102167.94;5014337;28;20663;-78
2023/05/21 00:34:32;;;;;;;6.03;2.90;;;;;;;12.62;100.00;102159.88;5016127;28;20309;-77
2023/05/21 00:36:57;;;;;;;3.93;2.60;;;;;;;12.58;100.00;102158.06;5016754;28;20232;-78
2023/05/21 00:39:23;;;;;;;4.97;3.13;;;;;;;12.59;100.00;102158.09;5021606;28;20275;-78
2023/05/21 00:41:49;;;;;;;5.77;3.40;;;;;;;12.57;100.00;102157.19;5034563;28;20584;-76
2023/05/21 00:44:17;;;;;;;6.87;3.70;;;;;;;12.59;100.00;102147.81;5014769;28;20206;-77
2023/05/21 00:46:43;;;;;;;6.77;3.20;;;;;;;12.57;100.00;102151.16;5014302;28;20942;-77
2023/05/21 00:49:13;;;;;;;6.90;3.40;;;;;;;12.56;100.00;102155.44;5016392;28;20229;-76
2023/05/21 00:51:39;;;;;;;8.60;3.60;;;;;;;12.54;100.00;102156.22;5044241;28;20644;-77
2023/05/21 00:54:05;;;;;;;8.73;3.27;;;;;;;12.52;100.00;102163.88;5023948;28;20240;-78
2023/05/21 00:56:31;;;;;;;6.53;3.37;;;;;;;12.46;100.00;102155.97;5032343;28;20662;-77
2023/05/21 00:58:57;;;;;;;5.03;2.80;;;;;;;12.45;100.00;102148.22;5015352;28;20229;-78
2023/05/21 01:01:26;;;;;;;5.90;2.90;;;;;;;12.43;100.00;102153.31;5015032;28;20233;-77
2023/05/21 01:03:56;;;;;;;8.87;3.80;;;;;;;12.35;100.00;102152.16;5024502;28;20198;-77
2023/05/21 01:06:22;;;;;;;5.63;3.50;;;;;;;12.32;100.00;102156.34;5025625;28;20284;-77
2023/05/21 01:08:49;;;;;;;5.60;2.93;;;;;;;12.31;100.00;102146.88;5023479;28;20218;-77
2023/05/21 01:11:16;;;;;;;6.30;3.30;;;;;;;12.28;100.00;102145.09;4998172;28;20190;-77
2023/05/21 01:13:42;;;;;;;4.97;3.20;;;;;;;12.24;100.00;102153.50;5032014;28;20686;-77
2023/05/21 01:16:09;;;;;;;4.27;3.17;;;;;;;12.20;100.00;102149.09;5016560;28;20209;-77
2023/05/21 01:18:36;;;;;;;8.40;3.07;;;;;;;12.23;100.00;102148.31;5025861;28;20214;-77
2023/05/21 01:21:03;;;;;;;6.40;3.97;;;;;;;12.15;100.00;102137.78;5034553;28;20285;-77
2023/05/21 01:23:28;;;;;;;10.90;3.80;;;;;;;12.17;100.00;102148.13;5027698;28;20209;-77
2023/05/21 01:25:54;;;;;;;5.37;3.50;;;;;;;12.12;100.00;102139.41;5004808;28;20214;-77
2023/05/21 01:28:20;;;;;;;5.87;3.37;;;;;;;12.12;100.00;102139.41;5036258;28;20249;-76
2023/05/21 01:30:46;;;;;;;6.27;3.27;;;;;;;12.05;100.00;102135.75;5039564;28;20197;-78
2023/05/21 01:33:17;;;;;;;4.83;3.10;;;;;;;12.05;100.00;102133.19;5016447;28;20198;-78
2023/05/21 01:36:20;;;;;;;6.10;3.23;;;;;;;12.07;100.00;102128.09;5028613;28;20186;-76
2023/05/21 01:39:06;;;;;;;5.07;2.80;;;;;;;12.04;100.00;102128.00;5013691;28;20260;-78
2023/05/21 01:41:36;;;;;;;5.57;3.60;;;;;;;12.04;100.00;102131.44;5020942;28;20198;-77
2023/05/21 01:44:04;;;;;;;5.97;3.20;;;;;;;11.98;100.00;102130.34;5019776;28;20209;-78
2023/05/21 01:46:33;;;;;;;5.17;3.30;;;;;;;11.99;100.00;102129.53;5035795;28;20198;-78
2023/05/21 01:48:59;;;;;;;7.77;3.00;;;;;;;11.99;100.00;102122.69;5021224;28;20226;-76
2023/05/21 01:51:25;;;;;;;4.60;3.20;;;;;;;11.89;100.00;102123.19;5036716;28;20209;-76
2023/05/21 01:53:51;;;;;;;4.77;3.30;;;;;;;11.85;100.00;102118.78;5020073;28;20573;-76
2023/05/21 01:56:16;;;;;;;6.20;3.70;;;;;;;11.89;100.00;102122.34;5037904;28;20194;-76
2023/05/21 01:58:42;;;;;;;4.93;2.90;;;;;;;11.88;100.00;102123.13;5053590;28;20206;-78
2023/05/21 02:01:08;;;;;;;5.33;3.13;;;;;;;11.89;100.00;102124.91;5013392;28;20696;-78
2023/05/21 02:03:34;;;;;;;6.43;3.17;;;;;;;11.87;100.00;102118.81;5037581;28;20620;-77
2023/05/21 02:05:59;;;;;;;4.73;2.90;;;;;;;11.85;100.00;102126.47;5015036;28;20225;-76
2023/05/21 02:08:26;;;;;;;5.97;3.27;;;;;;;11.81;100.00;102123.75;5018434;28;20228;-77
2023/05/21 02:10:53;;;;;;;4.57;3.23;;;;;;;11.83;100.00;102117.84;5020385;28;20186;-78
2023/05/21 02:13:19;;;;;;;5.77;3.40;;;;;;;11.79;100.00;102117.69;5019011;28;20667;-78
2023/05/21 02:15:46;;;;;;;7.23;3.60;;;;;;;11.77;100.00;102117.66;5035991;28;20236;-77
2023/05/21 02:18:15;;;;;;;6.17;3.10;;;;;;;11.77;100.00;102114.19;5018224;28;20214;-76
2023/05/21 02:20:42;;;;;;;6.93;3.40;;;;;;;11.72;100.00;102114.06;5018816;28;20191;-77
2023/05/21 02:23:07;;;;;;;4.70;3.27;;;;;;;11.74;100.00;102111.50;5032165;28;20196;-78
2023/05/21 02:25:32;;;;;;;6.70;3.30;;;;;;;11.75;100.00;102101.31;5036117;28;20233;-77
2023/05/21 02:27:58;;;;;;;5.43;2.90;;;;;;;11.70;100.00;102113.13;4999188;28;20525;-78
2023/05/21 02:30:24;;;;;;;7.97;3.10;;;;;;;11.67;100.00;102099.31;5029947;28;20194;-78
2023/05/21 02:32:49;;;;;;;7.13;3.60;;;;;;;11.61;100.00;102101.66;5019827;28;20202;-76
2023/05/21 02:35:15;;;;;;;5.73;3.40;;;;;;;11.67;100.00;102096.75;5015247;28;20198;-77
2023/05/21 02:37:40;;;;;;;6.47;3.50;;;;;;;11.63;100.00;102095.78;5032596;28;20210;-76
2023/05/21 02:40:08;;;;;;;5.67;3.07;;;;;;;11.59;100.00;102093.91;5042670;28;20269;-78
2023/05/21 02:42:35;;;;;;;6.20;3.47;;;;;;;11.54;100.00;102097.97;5028487;28;20199;-78
2023/05/21 02:45:01;;;;;;;7.37;3.20;;;;;;;11.58;100.00;102097.28;5037650;28;20218;-77
2023/05/21 02:47:27;;;;;;;5.93;3.30;;;;;;;11.51;100.00;102091.84;5017240;28;20784;-77
2023/05/21 02:49:53;;;;;;;7.40;3.50;;;;;;;11.52;100.00;102091.91;5019780;28;20210;-78
2023/05/21 02:52:22;;;;;;;6.30;3.37;;;;;;;11.50;100.00;102090.09;5036023;28;20211;-77
2023/05/21 02:54:48;;;;;;;7.93;3.70;;;;;;;11.48;100.00;102095.16;5011841;28;20675;-77
2023/05/21 02:57:13;;;;;;;5.40;3.80;;;;;;;11.42;100.00;102094.97;5018155;28;20202;-78
2023/05/21 02:59:39;;;;;;;8.10;4.50;;;;;;;11.44;100.00;102097.59;5014603;28;20249;-78
2023/05/21 03:02:05;;;;;;;7.47;4.10;;;;;;;11.43;100.00;102085.59;5017843;28;20194;-76
2023/05/21 03:04:31;;;;;;;7.50;3.87;;;;;;;11.45;100.00;102086.50;5016331;28;20241;-78
2023/05/21 03:07:00;;;;;;;6.33;3.33;;;;;;;11.41;100.00;102082.06;5014966;28;20210;-76
2023/05/21 03:09:26;;;;;;;5.60;3.57;;;;;;;11.40;100.00;102073.53;5047866;28;20233;-77
2023/05/21 03:11:54;;;;;;;5.07;3.70;;;;;;;11.34;100.00;102073.28;5014791;28;20194;-77
2023/05/21 03:14:20;;;;;;;6.07;3.63;;;;;;;11.32;100.00;102068.94;5009650;28;20194;-77
2023/05/21 03:16:47;;;;;;;5.93;3.70;;;;;;;11.28;100.00;102067.06;5016267;28;20199;-76
2023/05/21 03:19:14;;;;;;;5.73;3.57;;;;;;;11.31;100.00;102064.63;5013413;28;20766;-74
2023/05/21 03:21:40;;;;;;;5.70;3.37;;;;;;;11.30;100.00;102063.75;5014260;28;20201;-76
2023/05/21 03:24:06;;;;;;;9.20;4.00;;;;;;;11.27;100.00;102060.19;5031088;28;20281;-75
2023/05/21 03:26:32;;;;;;;6.43;3.90;;;;;;;11.26;100.00;102064.47;5030039;28;20277;-77
2023/05/21 03:28:57;;;;;;;7.50;4.00;;;;;;;11.26;100.00;102068.72;5028827;28;20217;-77
2023/05/21 03:31:24;;;;;;;7.37;3.90;;;;;;;11.29;100.00;102062.00;5014384;28;20328;-76
2023/05/21 03:34:09;;;;;;;6.47;3.97;;;;;;;11.31;100.00;102062.94;5016143;28;20206;-76
2023/05/21 03:36:35;;;;;;;8.03;3.90;;;;;;;11.32;100.00;102067.25;5045092;28;20213;-77
2023/05/21 03:39:03;;;;;;;8.97;4.10;;;;;;;11.28;100.00;102065.38;4998650;28;20214;-79
2023/05/21 03:41:29;;;;;;;6.23;4.30;;;;;;;11.33;100.00;102058.72;4998050;28;20299;-78
2023/05/21 03:44:03;;;;;;;5.03;3.20;;;;;;;11.35;100.00;102061.34;4992725;28;20202;-78
2023/05/21 03:46:36;;;;;;;7.80;3.77;;;;;;;11.42;100.00;102058.16;5012347;28;20201;-79
2023/05/21 03:49:19;;;;;;;8.23;4.03;;;;;;;11.38;100.00;102057.19;4997796;28;20691;-79
2023/05/21 03:51:46;;;;;;;6.40;3.80;;;;;;;11.47;100.00;102056.66;5010922;28;20201;-75
2023/05/21 03:54:15;;;;;;;7.73;4.37;;;;;;;11.50;100.00;102051.63;5007831;28;20200;-77
2023/05/21 03:56:40;;;;;;;4.20;3.50;;;;;;;11.55;100.00;102056.09;5052283;28;20687;-79
2023/05/21 03:59:06;;;;;;;7.50;3.87;;;;;;;11.56;100.00;102052.72;5037353;28;20301;-79
2023/05/21 04:01:32;;;;;;;7.03;3.80;;;;;;;11.58;100.00;102048.53;5014080;28;20252;-78
2023/05/21 04:03:58;;;;;;;8.60;3.80;;;;;;;11.61;100.00;102056.34;5014131;28;20694;-78
2023/05/21 04:06:25;;;;;;;8.10;3.70;;;;;;;11.66;100.00;102047.09;5014409;28;20616;-78
2023/05/21 04:08:51;;;;;;;6.47;4.23;;;;;;;11.71;100.00;102049.84;5026349;28;20256;-77
2023/05/21 04:11:16;;;;;;;5.43;3.40;;;;;;;11.78;100.00;102055.22;4996340;28;20762;-77
2023/05/21 04:13:41;;;;;;;9.60;3.93;;;;;;;11.78;100.00;102047.53;5030214;28;20237;-76
2023/05/21 04:16:08;;;;;;;6.73;4.33;;;;;;;11.81;100.00;102051.91;5012531;28;20694;-78
2023/05/21 04:18:34;;;;;;;7.20;4.27;;;;;;;11.86;100.00;102048.69;5007496;28;20284;-78
2023/05/21 04:21:00;;;;;;;8.77;4.20;;;;;;;11.90;100.00;102044.50;5009398;28;20196;-74
2023/05/21 04:23:26;;;;;;;6.27;4.13;;;;;;;11.96;100.00;102053.28;5010603;28;20711;-77
2023/05/21 04:25:54;;;;;;;6.70;3.73;;;;;;;12.00;100.00;102044.88;5010771;28;20263;-79
2023/05/21 04:28:20;;;;;;;8.93;4.00;;;;;;;12.06;100.00;102042.50;5013068;28;20618;-78
2023/05/21 04:30:47;;;;;;;6.93;3.83;;;;;;;12.12;100.00;102044.41;5006226;28;20377;-75
2023/05/21 04:33:16;;;;;;;8.73;4.40;;;;;;;12.16;100.00;102046.25;5007281;28;20194;-79
2023/05/21 04:35:45;;;;;;;6.80;3.93;;;;;;;12.21;100.00;102039.56;5012906;28;20190;-79
2023/05/21 04:38:11;;;;;;;5.67;4.10;;;;;;;12.29;100.00;102043.22;5008974;28;20281;-78
2023/05/21 04:40:37;;;;;;;6.97;4.53;;;;;;;12.36;100.00;102048.59;5010985;28;20735;-78
2023/05/21 04:43:03;;;;;;;6.60;4.37;;;;;;;12.40;100.00;102036.75;5028301;28;20236;-75
2023/05/21 04:45:28;;;;;;;6.20;3.90;;;;;;;12.46;100.00;102045.50;5020339;28;20790;-76
2023/05/21 04:47:54;;;;;;;7.43;3.83;;;;;;;12.52;100.00;102047.38;5021577;28;20226;-75
2023/05/21 04:50:19;;;;;;;7.07;3.67;;;;;;;12.59;100.00;102049.31;5006234;28;20198;-79
2023/05/21 04:52:45;;;;;;;7.07;4.00;;;;;;;12.61;100.00;102045.09;5029640;28;20196;-75
2023/05/21 04:55:11;;;;;;;8.57;4.33;;;;;;;12.66;100.00;102048.66;5029144;28;20197;-75
2023/05/21 04:57:36;;;;;;;9.07;4.83;;;;;;;12.70;100.00;102046.25;5011520;28;20198;-75
2023/05/21 05:00:05;;;;;;;8.40;4.37;;;;;;;12.72;100.00;102046.31;4996731;28;20227;-77
2023/05/21 05:02:36;;;;;;;5.87;4.10;;;;;;;12.76;100.00;102045.56;5011226;28;20194;-78
2023/05/21 05:05:01;;;;;;;8.33;4.40;;;;;;;12.78;100.00;102049.03;5012100;28;20691;-75
2023/05/21 05:07:27;;;;;;;6.67;4.40;;;;;;;12.78;100.00;102041.34;5029775;28;20201;-76
2023/05/21 05:09:52;;;;;;;8.20;4.97;;;;;;;12.83;100.00;102043.22;5012826;28;20221;-75
2023/05/21 05:12:18;;;;;;;7.17;4.50;;;;;;;12.89;100.00;102045.97;5012035;28;20194;-75
2023/05/21 05:14:43;;;;;;;8.03;4.77;;;;;;;12.91;100.00;102041.72;5014591;28;20214;-76
2023/05/21 05:17:09;;;;;;;9.00;4.77;;;;;;;13.05;100.00;102041.28;5011493;28;20189;-76
2023/05/21 05:19:35;;;;;;;8.93;4.70;;;;;;;13.17;100.00;102039.06;5011542;28;20213;-75
2023/05/21 05:22:00;;;;;;;8.97;4.87;;;;;;;13.35;100.00;102037.00;5017514;28;20676;-76
2023/05/21 05:24:26;;;;;;;7.67;4.67;;;;;;;13.51;100.00;102041.72;5014567;28;20276;-76
2023/05/21 05:26:51;;;;;;;6.57;4.47;;;;;;;13.60;100.00;102037.72;5017755;28;20190;-76
2023/05/21 05:29:17;;;;;;;7.70;5.20;;;;;;;13.75;100.00;102037.22;5013136;28;20584;-73
2023/05/21 05:31:43;;;;;;;7.90;4.50;;;;;;;13.89;100.00;102031.59;5011727;28;20186;-76
2023/05/21 05:34:08;;;;;;;7.83;4.80;;;;;;;14.05;100.00;102032.84;5011841;28;20198;-77
2023/05/21 05:36:34;;;;;;;8.70;5.10;;;;;;;14.18;100.00;102035.72;5040523;28;20571;-78
2023/05/21 05:39:01;;;;;;;8.00;5.03;;;;;;;14.23;100.00;102036.75;5015594;28;20214;-77
2023/05/21 05:41:27;;;;;;;7.77;4.83;;;;;;;14.40;100.00;102031.97;5012990;28;20281;-76
2023/05/21 05:43:54;;;;;;;9.30;5.63;;;;;;;14.51;100.00;102039.13;5006195;28;20240;-74
2023/05/21 05:46:21;;;;;;;9.60;5.43;;;;;;;14.66;100.00;102048.91;4995005;28;20225;-76
2023/05/21 05:48:46;;;;;;;7.70;5.30;;;;;;;14.78;100.00;102042.31;5010982;28;20218;-76
2023/05/21 05:51:14;;;;;;;9.00;5.07;;;;;;;14.85;100.00;102039.03;5010389;28;20664;-78
2023/05/21 05:53:39;;;;;;;7.60;5.77;;;;;;;15.00;100.00;102038.47;5044521;28;20195;-75
2023/05/21 05:56:06;;;;;;;8.03;5.37;;;;;;;15.09;100.00;102036.97;5013419;28;20268;-77
2023/05/21 05:58:31;;;;;;;8.10;5.30;;;;;;;15.07;100.00;102040.34;5028715;28;20221;-77
2023/05/21 06:01:14;;;;;;;7.67;4.93;;;;;;;15.10;100.00;102043.00;5004189;28;20199;-75
2023/05/21 06:03:39;;;;;;;8.70;5.40;;;;;;;15.11;100.00;102032.69;5037404;28;20196;-76
2023/05/21 06:06:10;;;;;;;7.93;5.40;;;;;;;15.17;100.00;102027.69;5011157;28;20214;-76
2023/05/21 06:08:36;;;;;;;8.13;5.53;;;;;;;15.27;100.00;102024.44;5012114;28;20229;-77
2023/05/21 06:11:02;;;;;;;6.83;5.57;;;;;;;15.36;100.00;102031.50;5015004;28;20659;-76
2023/05/21 06:13:27;;;;;;;7.37;5.80;;;;;;;15.44;100.00;102035.97;5017091;28;20190;-78
2023/05/21 06:15:53;;;;;;;8.23;5.37;;;;;;;15.53;100.00;102024.94;5015526;28;20815;-78
2023/05/21 06:18:19;;;;;;;8.63;5.50;;;;;;;15.63;100.00;102024.25;4998234;28;20758;-79
2023/05/21 06:20:44;;;;;;;8.43;6.10;;;;;;;15.70;100.00;102015.81;5037287;28;20190;-78
2023/05/21 06:23:10;;;;;;;8.03;6.40;;;;;;;15.76;100.00;102019.34;5014964;28;20194;-78
2023/05/21 06:25:36;;;;;;;8.10;6.13;;;;;;;15.82;100.00;102019.44;5000125;28;20245;-77
2023/05/21 06:28:02;;;;;;;10.53;6.67;;;;;;;15.84;100.00;102022.91;5014877;28;20218;-76
2023/05/21 06:30:29;;;;;;;10.87;6.37;;;;;;;15.91;100.00;102017.03;5014354;28;20573;-76
2023/05/21 06:32:55;;;;;;;9.47;6.70;;;;;;;15.94;100.00;102026.53;5014928;28;20197;-78
2023/05/21 06:35:20;;;;;;;11.47;7.30;;;;;;;16.00;100.00;102021.47;5016145;28;20282;-78
2023/05/21 06:37:47;;;;;;;9.07;6.50;;;;;;;16.03;100.00;102027.53;5047147;28;20186;-77
2023/05/21 06:40:13;;;;;;;9.10;6.83;;;;;;;16.19;100.00;102023.50;5018794;28;20225;-78
2023/05/21 06:42:39;;;;;;;11.07;7.03;;;;;;;16.25;100.00;102019.28;5013678;28;20288;-76
2023/05/21 06:45:33;;;;;;;9.27;6.90;;;;;;;16.33;100.00;102019.41;5031584;28;20217;-77
2023/05/21 06:48:05;;;;;;;11.13;7.07;;;;;;;16.43;100.00;102023.88;5001542;28;20251;-77
2023/05/21 06:50:30;;;;;;;10.80;7.43;;;;;;;16.54;100.00;102012.84;5006050;28;20193;-78
2023/05/21 06:52:56;;;;;;;10.20;7.47;;;;;;;16.62;100.00;102019.00;4997619;28;20567;-78
2023/05/21 06:55:21;;;;;;;10.77;7.60;;;;;;;16.76;100.00;102006.28;5014045;28;20277;-77
2023/05/21 06:57:59;;;;;;;10.00;7.60;;;;;;;16.92;100.00;102009.06;5007994;28;20214;-76
2023/05/21 07:00:25;;;;;;;11.13;8.07;;;;;;;17.02;100.00;102013.50;5014079;28;20213;-77
2023/05/21 07:02:50;;;;;;;9.87;7.87;;;;;;;17.24;100.00;102002.53;5015746;28;20995;-77
2023/05/21 07:05:16;;;;;;;10.20;7.23;;;;;;;17.42;100.00;102007.94;4999518;28;20244;-77
2023/05/21 07:07:41;;;;;;;10.47;7.47;;;;;;;17.70;100.00;101999.59;5015612;28;20190;-76
2023/05/21 07:10:07;;;;;;;10.23;7.90;;;;;;;17.88;100.00;101984.19;5013237;28;20214;-78
2023/05/21 07:12:33;;;;;;;9.63;7.47;;;;;;;18.21;100.00;101999.13;5011942;28;20190;-78
2023/05/21 07:14:59;;;;;;;11.97;9.13;;;;;;;18.36;100.00;101978.50;4998632;28;20563;-78
2023/05/21 07:17:24;;;;;;;9.70;8.33;;;;;;;18.55;100.00;101976.00;5018279;28;20186;-77
2023/05/21 07:19:50;;;;;;;11.33;7.40;;;;;;;18.70;100.00;101977.84;5016017;28;20218;-77
2023/05/21 07:22:15;;;;;;;10.03;8.97;;;;;;;18.60;100.00;101973.47;5013219;28;20186;-79
2023/05/21 07:24:41;;;;;;;10.73;9.10;;;;;;;18.67;100.00;101962.22;5048715;28;20210;-76
2023/05/21 07:27:06;;;;;;;11.53;9.07;;;;;;;18.96;100.00;101969.28;5016338;28;20229;-78
2023/05/21 07:29:32;;;;;;;10.83;9.47;;;;;;;19.08;100.00;101989.22;4998361;28;20703;-78
2023/05/21 07:31:58;;;;;;;11.13;8.60;;;;;;;19.09;100.00;101952.88;4999094;28;20212;-77
2023/05/21 07:34:24;;;;;;;13.10;10.33;;;;;;;19.05;100.00;101955.44;5013618;28;20612;-78
2023/05/21 07:36:51;;;;;;;11.37;9.87;;;;;;;19.14;100.00;101969.34;5012209;28;20730;-77
2023/05/21 07:39:16;;;;;;;12.93;10.00;;;;;;;19.31;100.00;101956.41;5012723;28;20219;-77
2023/05/21 07:41:42;;;;;;;14.53;11.03;;;;;;;19.28;100.00;101933.91;5010830;28;20197;-78
2023/05/21 07:44:08;;;;;;;14.57;10.67;;;;;;;19.32;100.00;101942.56;5007331;28;20190;-77
2023/05/21 07:46:37;;;;;;;12.97;11.27;;;;;;;19.55;100.00;101949.53;5009555;28;20238;-78
2023/05/21 07:49:03;;;;;;;12.63;10.93;;;;;;;19.55;100.00;101946.03;5014607;28;20241;-78
2023/05/21 07:51:29;;;;;;;11.50;9.57;;;;;;;19.74;100.00;101924.38;5015003;28;20278;-76
2023/05/21 07:53:55;;;;;;;13.07;10.80;;;;;;;19.67;100.00;101943.47;5030229;28;20198;-78
2023/05/21 07:56:28;;;;;;;13.00;10.07;;;;;;;19.81;100.00;101963.38;5018210;28;20182;-78
2023/05/21 07:58:54;;;;;;;12.47;10.63;;;;;;;19.86;100.00;101945.19;5014881;28;20218;-78
2023/05/21 08:01:19;;;;;;;11.47;9.93;;;;;;;20.05;100.00;101924.34;5009480;28;20648;-77
2023/05/21 08:03:45;;;;;;;11.63;10.33;;;;;;;20.17;100.00;101913.94;5012288;28;20179;-78
2023/05/21 08:06:10;;;;;;;14.93;11.47;;;;;;;20.43;100.00;101908.66;5012642;28;20206;-79
2023/05/21 08:08:36;;;;;;;14.03;11.37;;;;;;;20.66;100.00;101901.59;5009697;28;20300;-78
2023/05/21 08:11:02;;;;;;;12.67;10.83;;;;;;;20.84;100.00;101899.78;5017504;28;20306;-79
2023/05/21 08:13:28;;;;;;;14.50;12.27;;;;;;;20.92;100.00;101845.94;4996322;28;20573;-78
2023/05/21 08:15:54;;;;;;;13.73;11.33;;;;;;;21.10;100.00;101848.41;5012185;28;20186;-78
2023/05/21 08:18:22;;;;;;;13.70;11.87;;;;;;;21.52;100.00;101844.59;5014569;28;20199;-78
2023/05/21 08:20:49;;;;;;;11.90;10.60;;;;;;;21.73;100.00;101810.50;5015425;28;20194;-79
2023/05/21 08:23:16;;;;;;;14.90;11.60;;;;;;;22.13;100.00;101814.38;5012345;28;20190;-79
2023/05/21 08:25:47;;;;;;;14.57;11.93;;;;;;;21.84;100.00;101739.06;5011423;28;20245;-78
2023/05/21 08:28:13;;;;;;;13.50;12.10;;;;;;;21.99;100.00;101795.44;5011862;28;20901;-78
2023/05/21 08:30:40;;;;;;;14.50;12.20;;;;;;;21.71;100.00;101820.97;5014869;28;20676;-79
2023/05/21 08:33:05;;;;;;;13.70;12.27;;;;;;;21.43;100.00;101842.91;4990492;28;20610;-79
2023/05/21 08:35:32;;;;;;;14.17;12.67;;;;;;;21.43;100.00;101862.91;5014781;28;20240;-78
2023/05/21 08:38:30;;;;;;;14.57;12.40;;;;;;;21.54;100.00;101859.34;5001452;28;20214;-79
2023/05/21 08:41:15;;;;;;;14.67;13.13;;;;;;;21.40;100.00;101853.38;5011207;28;20649;-79
2023/05/21 08:43:44;;;;;;;14.13;12.53;;;;;;;21.65;100.00;101862.69;5001819;28;20225;-79
2023/05/21 08:46:10;;;;;;;14.43;12.03;;;;;;;21.84;100.00;101858.22;5012424;28;20213;-78
2023/05/21 08:48:39;;;;;;;13.17;11.77;;;;;;;22.04;100.00;101835.38;5016398;28;20305;-77
2023/05/21 08:51:05;;;;;;;13.23;11.83;;;;;;;22.30;100.00;101813.28;4998533;28;20190;-79
2023/05/21 08:53:51;;;;;;;16.13;12.13;;;;;;;22.38;100.00;101823.63;5014261;28;20268;-79
2023/05/21 08:56:19;;;;;;;16.53;10.90;;;;;;;22.54;100.00;101839.97;4998753;28;20615;-79
2023/05/21 08:58:50;;;;;;;15.43;12.10;;;;;;;22.50;100.00;101786.06;5016531;28;20202;-78
2023/05/21 09:01:20;;;;;;;12.70;11.37;;;;;;;22.78;100.00;101813.53;5017440;28;20213;-79
2023/05/21 09:03:51;;;;;;;12.77;10.20;;;;;;;22.96;100.00;101774.03;5014452;28;20190;-79
2023/05/21 09:06:18;;;;;;;11.73;10.53;;;;;;;23.05;100.00;101802.63;5013252;28;20210;-78
2023/05/21 09:08:52;;;;;;;12.63;10.97;;;;;;;23.08;100.00;101737.25;5013723;28;20562;-77
2023/05/21 09:11:26;;;;;;;15.10;12.00;;;;;;;23.36;100.00;101748.97;5016509;28;20198;-77
2023/05/21 09:13:56;;;;;;;14.40;11.52;;;;;;;23.45;100.00;101700.00;5013582;28;20198;-77
2023/05/21 09:16:28;;;;;;;14.38;11.35;;;;;;;23.69;100.00;101680.31;4998424;28;20214;-78
2023/05/21 09:18:54;;;;;;;15.37;12.23;;;;;;;24.07;100.00;101689.09;5013035;28;20244;-78
2023/05/21 09:21:30;;;;;;;14.07;12.30;;;;;;;24.18;100.00;101674.00;5015118;28;20182;-79
2023/05/21 09:24:00;;;;;;;13.32;11.13;;;;;;;24.41;100.00;101640.25;5013180;28;20742;-78
2023/05/21 09:26:26;;;;;;;11.80;10.70;;;;;;;24.50;100.00;101621.69;4997397;28;20210;-79
2023/05/21 09:28:59;;;;;;;13.30;11.95;;;;;;;24.40;100.00;101622.84;5017408;28;20341;-77
2023/05/21 09:31:26;;;;;;;16.10;12.10;;;;;;;24.64;100.00;101643.19;5013670;28;20195;-78
2023/05/21 09:33:52;;;;;;;15.75;11.50;;;;;;;24.49;100.00;101617.38;5013717;28;20545;-78
2023/05/21 09:36:19;;;;;;;13.75;11.35;;;;;;;25.03;100.00;101608.09;4996416;28;20183;-78
2023/05/21 09:38:46;;;;;;;13.98;11.93;;;;;;;25.31;100.00;101605.56;5003305;28;20214;-77
2023/05/21 09:41:12;;;;;;;14.85;12.77;;;;;;;25.30;92.53;101544.41;5021526;28;20277;-79
2023/05/21 09:43:41;;;;;;;13.52;12.13;;;;;;;25.33;94.90;101544.28;4999523;28;20277;-78
2023/05/21 09:46:06;;;;;;;13.73;12.23;;;;;;;25.49;94.78;101553.44;5016859;28;20271;-79
2023/05/21 09:48:40;;;;;;;14.13;12.80;;;;;;;25.86;95.49;101558.38;5018431;28;20217;-78
2023/05/21 09:51:16;;;;;;;13.95;12.35;;;;;;;25.72;89.43;101513.34;5021752;28;20197;-79
2023/05/21 09:53:58;;;;;;;14.45;12.85;;;;;;;26.09;89.83;101527.88;5034890;28;20747;-78
2023/05/21 09:56:29;;;;;;;14.10;11.07;;;;;;;26.24;94.01;101540.50;5034541;28;20186;-79
2023/05/21 09:58:56;;;;;;;13.38;12.00;;;;;;;26.05;86.86;101501.75;5015455;28;20234;-79
2023/05/21 10:01:25;;;;;;;14.27;12.32;;;;;;;26.12;82.88;101471.78;5035293;28;20198;-78
2023/05/21 10:03:56;;;;;;;13.63;12.23;;;;;;;26.31;83.89;101471.09;5035591;28;20194;-79
2023/05/21 10:06:30;;;;;;;13.80;12.38;;;;;;;26.57;78.36;101444.75;5034379;28;20689;-77
2023/05/21 10:08:58;;;;;;;13.93;12.43;;;;;;;26.66;78.98;101438.31;5015753;28;20230;-78
2023/05/21 10:11:25;;;;;;;13.93;12.38;;;;;;;26.71;76.37;101439.84;5035290;28;20201;-78
2023/05/21 10:13:59;;;;;;;14.15;12.65;;;;;;;26.84;85.52;101475.28;5036074;28;20906;-78
2023/05/21 10:16:25;;;;;;;14.68;13.18;;;;;;;27.02;72.65;101416.72;5033500;28;20187;-77
2023/05/21 10:18:53;;;;;;;13.02;11.82;;;;;;;26.88;77.09;101437.44;5035031;28;20724;-78
2023/05/21 10:21:21;;;;;;;14.32;12.10;;;;;;;27.32;75.34;101427.84;5018152;28;20663;-79
2023/05/21 10:23:48;;;;;;;12.65;11.20;;;;;;;27.62;72.68;101422.19;5035119;28;20258;-78
2023/05/21 10:26:15;;;;;;;12.57;11.38;;;;;;;27.87;73.96;101433.44;5035813;28;20214;-77
2023/05/21 10:28:41;;;;;;;12.95;11.07;;;;;;;27.96;67.45;101390.91;5018091;28;20222;-78
2023/05/21 10:31:06;;;;;;;13.13;11.70;;;;;;;28.16;71.81;101421.66;5034043;28;20202;-78
2023/05/21 10:33:34;;;;;;;14.68;11.20;;;;;;;28.21;65.81;101381.00;5035856;28;20193;-78
2023/05/21 10:36:01;;;;;;;13.27;11.93;;;;;;;27.63;63.17;101363.34;5020855;28;20198;-78
2023/05/21 10:38:27;;;;;;;13.60;12.15;;;;;;;27.66;62.44;101381.66;5035411;28;20214;-78
2023/05/21 10:40:54;;;;;;;13.93;11.95;;;;;;;27.79;67.57;101440.78;5032460;28;20191;-78
2023/05/21 10:43:55;;;;;;;13.13;11.48;;;;;;;28.12;65.57;101423.59;5004469;28;20201;-79
2023/05/21 10:46:55;;;;;;;11.95;10.85;;;;;;;27.95;67.66;101441.03;5033010;28;20216;-79
2023/05/21 10:49:41;;;;;;;12.93;11.63;;;;;;;28.27;62.76;101416.78;5033640;28;20222;-78
2023/05/21 10:52:33;;;;;;;13.25;11.32;;;;;;;28.43;64.01;101438.94;5018534;28;20460;-78
2023/05/21 10:55:25;;;;;;;12.55;11.35;;;;;;;28.66;60.14;101404.47;5034576;28;20281;-79
2023/05/21 10:58:15;;;;;;;13.40;11.10;;;;;;;28.22;63.15;101456.50;5016501;28;20186;-79
2023/05/21 11:00:42;;;;;;;13.02;11.65;;;;;;;28.41;61.86;101438.16;5018036;28;20203;-79
2023/05/21 11:03:11;;;;;;;12.35;11.15;;;;;;;28.12;62.71;101455.19;5036398;28;20282;-79
2023/05/21 11:05:41;;;;;;;12.07;10.82;;;;;;;28.27;62.32;101443.16;5035411;28;20900;-79
2023/05/21 11:08:27;;;;;;;12.30;11.10;;;;;;;28.74;58.60;101426.09;5032743;28;20215;-78
2023/05/21 11:10:56;;;;;;;11.85;10.65;;;;;;;28.78;56.99;101417.94;5030620;28;20202;-79
2023/05/21 11:13:22;;;;;;;13.50;11.02;;;;;;;29.00;58.25;101441.56;5015520;28;20732;-78
2023/05/21 11:15:57;;;;;;;12.15;10.95;;;;;;;28.46;57.20;101428.25;5035402;28;20652;-78